Flight Track Log - Related Links

Times and Time Zones

All times are in EDT time to prevent confusion due to time zone crossing. See the UAL4476 flight status page for this flight to view local times or setup timezone preferences in your user account.

Time Position Orientation Groundspeed Altitude Reporting Facility
EDT Latitude Longitude Course Direction KTS MPH feet Rate Location/Type
Fri 12:31:49 PM 41.4153 -81.8375 25° Northeast 168 193 1,900  Level Cleveland Center
Fri 12:32:39 PM 41.4508 -81.8158 25° Northeast 206 237 3,400 2,127 Climbing Cleveland Center
Fri 12:33:39 PM 41.4986 -81.8528 330° Northwest 219 252 5,800 1,450 Climbing Cleveland Center
Fri 12:34:39 PM 41.5100 -81.9392 280° West 207 238 6,300 1,450 Climbing Cleveland Center
Fri 12:35:39 PM 41.4986 -82.0275 260° West 224 258 8,700 2,250 Climbing Cleveland Center
Fri 12:36:39 PM 41.4536 -82.1069 233° Southwest 245 282 10,800 1,650 Climbing Cleveland Center
Fri 12:37:39 PM 41.4025 -82.1997 234° Southwest 296 341 12,000 1,500 Climbing Cleveland Center
Fri 12:38:39 PM 41.3489 -82.2981 234° Southwest 322 371 13,800 1,650 Climbing Cleveland Center
Fri 12:39:39 PM 41.3017 -82.3825 233° Southwest 327 376 15,300 1,150 Climbing Cleveland Center
Fri 12:40:39 PM 41.2458 -82.4803 233° Southwest 334 384 16,100 400 Climbing Cleveland Center
Fri 12:41:39 PM 41.1964 -82.5756 235° Southwest 334 384 16,100  Level Cleveland Center
Fri 12:42:39 PM 41.1425 -82.6678 232° Southwest 334 384 16,100  Level Cleveland Center
Fri 12:43:39 PM 41.0886 -82.7597 232° Southwest 329 379 16,100  Level Cleveland Center
Fri 12:44:39 PM 41.0328 -82.8514 231° Southwest 329 379 16,100  Level Cleveland Center
Fri 12:47:07 PM 40.8894 -83.0872 231° Southwest 329 379 16,100  Level Indianapolis Center
Fri 12:48:09 PM 40.8303 -83.1806 230° Southwest 329 379 16,100 -48 Level Indianapolis Center
Fri 12:49:11 PM 40.7733 -83.2736 231° Southwest 331 381 16,000 -48 Descending Indianapolis Center
Fri 12:50:13 PM 40.7144 -83.3681 231° Southwest 332 382 16,000  Level Indianapolis Center
Fri 12:51:15 PM 40.6456 -83.4794 231° Southwest 335 386 16,000 -222 Level Indianapolis Center
Fri 12:52:01 PM 40.6006 -83.5475 229° Southwest 337 388 15,600 -774 Descending Indianapolis Center
Fri 12:52:17 PM 40.5850 -83.5753 234° Southwest 339 390 15,200 -1,500 Descending Indianapolis Center
Fri 12:52:57 PM 40.5461 -83.6339 229° Southwest 333 383 14,200 -1,452 Descending Indianapolis Center
Fri 12:53:19 PM 40.5278 -83.6664 233° Southwest 325 374 13,700 -1,700 Descending Indianapolis Center
Fri 12:53:57 PM 40.4889 -83.7283 230° Southwest 306 352 12,500 -1,645 Descending Indianapolis Center
Fri 12:54:21 PM 40.4719 -83.7531 228° Southwest 310 357 12,000 -1,377 Descending Indianapolis Center
Fri 12:54:58 PM 40.4347 -83.8119 230° Southwest 302 348 11,100 -1,065 Descending Indianapolis Center
Fri 12:55:23 PM 40.4194 -83.8369 231° Southwest 299 344 10,900 -197 Descending Indianapolis Center
Fri 12:55:59 PM 40.3825 -83.8928 229° Southwest 294 338 10,900 -290 Level Indianapolis Center
Fri 12:56:25 PM 40.3628 -83.9153 221° Southwest 297 342 10,600 -787 Descending Indianapolis Center
Fri 12:57:00 PM 40.3161 -83.9664 220° Southwest 316 364 10,100 -667 Descending Indianapolis Center
Fri 12:57:28 PM 40.2964 -83.9881 220° Southwest 309 356 9,900 -98 Descending Indianapolis Center
Fri 12:58:01 PM 40.2519 -84.0375 220° Southwest 310 357 10,000  Climbing Indianapolis Center
Fri 12:58:29 PM 40.2203 -84.0736 221° Southwest 308 354 9,900  Descending Indianapolis Center
Fri 12:59:02 PM 40.1811 -84.1156 219° Southwest 305 351 10,000  Climbing Indianapolis Center
Fri 12:59:31 PM 40.1556 -84.1436 220° Southwest 302 348 9,900  Descending Indianapolis Center
Fri 01:00:09 PM 40.1144 -84.1914 222° Southwest 294 338 10,000  Climbing Indianapolis Center
Fri 01:00:33 PM 40.0931 -84.2150 220° Southwest 300 345 9,900  Descending Indianapolis Center
Fri 01:01:10 PM 40.0525 -84.2594 220° Southwest 293 337 10,000 -484 Climbing Indianapolis Center
Fri 01:01:35 PM 40.0306 -84.2825 219° Southwest 296 341 9,400 -1,900 Descending Indianapolis Center
Fri 01:02:10 PM 39.9906 -84.3275 221° Southwest 269 310 8,100 -1,935 Descending Indianapolis Center
Fri 01:02:37 PM 39.9764 -84.3486 229° Southwest 278 320 7,400 -2,226 Descending Indianapolis Center
Fri 01:03:12 PM 39.9486 -84.4061 238° Southwest 267 307 5,800 -2,129 Descending Indianapolis Center
Fri 01:03:39 PM 39.9342 -84.4294 231° Southwest 270 311 5,200 -1,889 Descending Indianapolis Center
Fri 01:04:06 PM 39.8933 -84.4394 191° South 262 302 4,100 -2,032 Descending Indianapolis Center
Fri 01:04:41 PM 39.8697 -84.4008 129° Southeast 261 300 3,100 -984 Descending Indianapolis Center
Fri 01:05:07 PM 39.8525 -84.3742 130° Southeast 232 267 3,100 -194 Level Indianapolis Center
Fri 01:05:43 PM 39.8378 -84.3336 115° Southeast 235 270 2,900 -393 Descending Indianapolis Center
Fri 01:06:08 PM 39.8456 -84.3053 70° East 191 220 2,700 -677 Descending Indianapolis Center
Fri 01:06:45 PM 39.8600 -84.2817 51° Northeast 207 238 2,200 -1,082 Descending Indianapolis Center
Fri 01:07:09 PM 39.8747 -84.2547 55° Northeast 143 165 1,600 -1,500 Descending Indianapolis Center

Login

Don't have an account? Register now (free) for customized features, flight alerts, and more!